»·PEaware :: WAT202 KLAS-KRNO

WAT202 :: KLAS-KRNO

FLIGHT INFORMATION

Flight Status: Arrived
Operator:
Walker Air Transport
More flights by this operator :: More flights under this callsign
Pilot: Nick L. (7253)
Aircraft: BOEING 727-200
(B722)
More flights by this aircraft type
Origin: KLAS Harry Reid Intl
United States
Destination: KRNO Reno/Tahoe Intl
United States
More flights between these airports :: More routes between these airports
Route: +MCCRN5 BTY V105 OAL FMG
File this flight plan on PilotEdge
Remarks:
Altitude:
(Current/Filed)
32,000ft
Speed:
(Current/Filed)
486kts
Departed: 12-Jun-20 12:30 PM
Arrived: 12-Jun-20 01:26 PM
Distance/Time
Traveled:
300nm/0:55
Distance/Time
To Go:
Arrived

Flight Plot

Page will automatically refresh every two minutes.

Flight plan parsing failed; only flown route is shown


Map Options




Map Legend


Flown Route
Filed Route
Departure Airport
Arrival Airport
Navaid (VOR, NDB)
Fix

Horizontal Profiles

Position Reports

Time Latitude Longitude Heading Altitude Ground
Speed
12-Jun-20 12:06 36.080224 -115.136191 61 2075ft 0kts
12-Jun-20 12:07 36.080224 -115.136191 61 2075ft 0kts
12-Jun-20 12:08 36.080224 -115.136191 61 2075ft 0kts
12-Jun-20 12:09 36.080224 -115.136191 61 2075ft 0kts
12-Jun-20 12:10 36.080224 -115.136191 61 2075ft 0kts
12-Jun-20 12:11 36.080224 -115.136191 61 2075ft 0kts
12-Jun-20 12:12 36.080224 -115.136191 61 2075ft 0kts
12-Jun-20 12:13 36.080224 -115.136191 61 2075ft 0kts
12-Jun-20 12:14 36.080224 -115.136191 61 2075ft 0kts
12-Jun-20 12:15 36.080224 -115.136191 61 2075ft 0kts
12-Jun-20 12:16 36.080224 -115.136191 61 2075ft 0kts
12-Jun-20 12:17 36.080224 -115.136191 61 2075ft 0kts
12-Jun-20 12:18 36.080224 -115.136191 61 2075ft 0kts
12-Jun-20 12:19 36.080224 -115.136192 61 2075ft 0kts
12-Jun-20 12:20 36.079958 -115.136807 62 2076ft 2kts
12-Jun-20 12:22 36.079987 -115.137297 136 2076ft 0kts
12-Jun-20 12:23 36.079987 -115.137297 136 2076ft 0kts
12-Jun-20 12:24 36.079987 -115.137297 136 2076ft 0kts
12-Jun-20 12:25 36.079884 -115.137175 136 2076ft 1kts
12-Jun-20 12:26 36.079208 -115.136330 134 2075ft 13kts
12-Jun-20 12:27 36.078233 -115.129919 92 2056ft 24kts
12-Jun-20 12:28 36.077959 -115.122290 129 2043ft 15kts
12-Jun-20 12:29 36.077471 -115.121590 133 2042ft 8kts
12-Jun-20 12:30 36.076393 -115.124241 268 2049ft 60kts
12-Jun-20 12:31 36.077422 -115.173005 270 2857ft 176kts
12-Jun-20 12:32 36.078181 -115.238915 229 4501ft 212kts
12-Jun-20 12:33 36.021790 -115.277257 200 6947ft 256kts
12-Jun-20 12:34 35.954467 -115.311728 200 9854ft 265kts
12-Jun-20 12:35 35.918872 -115.392820 260 11594ft 324kts
12-Jun-20 12:36 35.912603 -115.508165 261 13898ft 343kts
12-Jun-20 12:37 35.907252 -115.626654 261 16233ft 350kts
12-Jun-20 12:38 35.902422 -115.747991 261 18236ft 359kts
12-Jun-20 12:39 35.908987 -115.873042 295 19802ft 392kts
12-Jun-20 12:40 35.985782 -115.975789 309 21305ft 412kts
12-Jun-20 12:40 36.054422 -116.059558 309 22421ft 421kts
12-Jun-20 12:42 36.154491 -116.176322 311 23933ft 429kts
12-Jun-20 12:42 36.229457 -116.258444 314 24894ft 436kts
12-Jun-20 12:43 36.327978 -116.348996 320 25904ft 447kts
12-Jun-20 12:45 36.452176 -116.444364 322 26988ft 454kts
12-Jun-20 12:45 36.540035 -116.516239 318 27697ft 455kts
12-Jun-20 12:46 36.643452 -116.609295 317 28519ft 459kts
12-Jun-20 12:48 36.764748 -116.717230 317 29435ft 462kts
12-Jun-20 12:48 36.854868 -116.792014 315 29971ft 465kts
12-Jun-20 12:49 36.958080 -116.889499 316 30651ft 468kts
12-Jun-20 12:50 37.066570 -116.982792 318 31045ft 479kts
12-Jun-20 12:51 37.178048 -117.076689 313 31277ft 484kts
12-Jun-20 12:52 37.282522 -117.183309 311 31578ft 489kts
12-Jun-20 12:53 37.392368 -117.287621 317 31882ft 503kts
12-Jun-20 12:54 37.513795 -117.380513 322 32142ft 518kts
12-Jun-20 12:55 37.640310 -117.470351 321 32148ft 522kts
12-Jun-20 12:56 37.760906 -117.567838 317 32144ft 508kts
12-Jun-20 12:57 37.876030 -117.665985 316 32110ft 500kts
12-Jun-20 12:58 37.991812 -117.761875 317 32087ft 497kts
12-Jun-20 12:59 38.095733 -117.866943 291 32140ft 450kts
12-Jun-20 13:00 38.191011 -117.973221 308 32032ft 466kts
12-Jun-20 13:01 38.286442 -118.082616 307 31939ft 459kts
12-Jun-20 13:02 38.367373 -118.201129 296 31018ft 443kts
12-Jun-20 13:03 38.448802 -118.324011 305 28071ft 463kts
12-Jun-20 13:04 38.542612 -118.435240 312 26143ft 455kts
12-Jun-20 13:05 38.637544 -118.539357 313 24199ft 444kts
12-Jun-20 13:06 38.730942 -118.641656 313 23941ft 450kts
12-Jun-20 13:07 38.826145 -118.747029 312 23949ft 468kts
12-Jun-20 13:08 38.925200 -118.856227 312 23882ft 452kts
12-Jun-20 13:09 39.015570 -118.961144 308 22372ft 430kts
12-Jun-20 13:10 39.096244 -119.070125 304 20721ft 413kts
12-Jun-20 13:11 39.171363 -119.178959 305 18974ft 401kts
12-Jun-20 13:12 39.246915 -119.282434 309 17308ft 391kts
12-Jun-20 13:13 39.323356 -119.379698 310 16087ft 368kts
12-Jun-20 13:14 39.395278 -119.472765 309 15530ft 358kts
12-Jun-20 13:15 39.462067 -119.562818 308 14465ft 335kts
12-Jun-20 13:16 39.537430 -119.620174 359 13386ft 326kts
12-Jun-20 13:17 39.625996 -119.613397 3 12322ft 310kts
12-Jun-20 13:18 39.709807 -119.608136 340 11251ft 289kts
12-Jun-20 13:19 39.732937 -119.681981 227 10183ft 222kts
12-Jun-20 13:20 39.686294 -119.727129 212 9133ft 202kts
12-Jun-20 13:21 39.637930 -119.757197 201 7903ft 185kts
12-Jun-20 13:22 39.588958 -119.764799 183 6303ft 166kts
12-Jun-20 13:23 39.548078 -119.767039 191 5163ft 143kts
12-Jun-20 13:24 39.508342 -119.766775 183 4426ft 135kts
12-Jun-20 13:25 39.489720 -119.766851 184 4417ft 4kts
12-Jun-20 13:26 39.489242 -119.768404 267 4416ft 12kts
12-Jun-20 13:27 39.492542 -119.771546 360 4414ft 26kts
12-Jun-20 13:28 39.498591 -119.771486 358 4413ft 3kts
12-Jun-20 13:29 39.503727 -119.772328 271 4419ft 2kts
12-Jun-20 13:30 39.504398 -119.772781 351 4419ft 0kts
12-Jun-20 13:31 39.504398 -119.772781 351 4419ft 0kts

Navigation Log

Ident Type
Flight plan parsing failed, navigation log unavailable